createdAt,value
2023-03-16T00:00:51.531Z,13.25
2023-03-16T00:03:21.470Z,10.38
2023-03-16T00:05:53.636Z,6.93
2023-03-16T00:08:20.490Z,9.65
2023-03-16T00:10:47.442Z,9.43
2023-03-16T00:13:15.560Z,10.45
2023-03-16T00:15:49.728Z,8.45
2023-03-16T00:18:16.163Z,9.27
2023-03-16T00:20:42.644Z,8.23
2023-03-16T00:23:09.127Z,10.23
2023-03-16T00:25:35.640Z,8.60
2023-03-16T00:28:03.711Z,8.10
2023-03-16T00:30:32.831Z,8.25
2023-03-16T00:32:59.553Z,7.50
2023-03-16T00:35:26.101Z,7.18
2023-03-16T00:37:52.714Z,7.78
2023-03-16T00:40:19.372Z,9.48
2023-03-16T00:42:45.801Z,13.18
2023-03-16T00:45:12.309Z,8.60
2023-03-16T00:47:38.790Z,7.40
2023-03-16T00:50:06.302Z,9.18
2023-03-16T00:52:32.757Z,9.87
2023-03-16T00:54:59.283Z,11.57
2023-03-16T00:57:27.729Z,7.22
2023-03-16T00:59:54.297Z,9.07
2023-03-16T01:02:23.715Z,11.02
2023-03-16T01:04:51.896Z,11.98
2023-03-16T01:07:18.723Z,12.97
2023-03-16T01:09:45.629Z,10.30
2023-03-16T01:12:15.445Z,16.38
2023-03-16T01:14:42.855Z,11.63
2023-03-16T01:17:09.923Z,13.33
2023-03-16T01:19:37.498Z,11.57
2023-03-16T01:22:05.506Z,10.43
2023-03-16T01:24:32.315Z,11.23
2023-03-16T01:26:58.795Z,7.38
2023-03-16T01:29:25.316Z,13.98
2023-03-16T01:31:51.981Z,9.07
2023-03-16T01:34:18.814Z,8.60
2023-03-16T01:36:48.158Z,9.35
2023-03-16T01:39:15.372Z,10.30
2023-03-16T01:41:43.408Z,10.23
2023-03-16T01:44:14.222Z,9.20
2023-03-16T01:46:41.949Z,10.55
2023-03-16T01:49:20.617Z,9.73
2023-03-16T01:51:54.877Z,10.52
2023-03-16T01:54:26.724Z,7.50
2023-03-16T01:57:15.088Z,8.38
2023-03-16T01:59:48.725Z,9.27
2023-03-16T02:02:19.676Z,7.17
2023-03-16T02:05:04.682Z,9.13
2023-03-16T02:07:36.156Z,9.30
2023-03-16T02:10:04.917Z,9.97
2023-03-16T02:12:31.920Z,8.37
2023-03-16T02:17:31.081Z,9.63
2023-03-16T02:20:13.875Z,7.90
2023-03-16T02:22:50.518Z,7.95
2023-03-16T02:25:18.994Z,9.15
2023-03-16T02:28:08.197Z,9.67
2023-03-16T02:30:35.006Z,8.97
2023-03-16T02:33:02.512Z,9.48
2023-03-16T02:35:29.100Z,9.63
2023-03-16T02:37:55.751Z,10.18
2023-03-16T02:40:27.168Z,10.05
2023-03-16T02:43:04.122Z,7.67
2023-03-16T02:48:23.352Z,9.07
2023-03-16T02:50:53.087Z,10.17
2023-03-16T02:53:19.736Z,10.97
2023-03-16T02:55:46.528Z,13.60
2023-03-16T02:58:14.457Z,8.77
2023-03-16T03:00:42.497Z,9.53
2023-03-16T03:03:09.555Z,9.20
2023-03-16T03:05:37.485Z,12.00
2023-03-16T03:08:05.028Z,14.35
2023-03-16T03:10:31.547Z,13.27
2023-03-16T03:12:58.949Z,10.95
2023-03-16T03:15:25.586Z,12.03
2023-03-16T03:17:52.073Z,9.82
2023-03-16T03:20:19.510Z,11.30
2023-03-16T03:22:48.926Z,12.37
2023-03-16T03:25:17.305Z,10.98
2023-03-16T03:27:44.654Z,7.90
2023-03-16T03:30:15.733Z,14.10
2023-03-16T03:32:42.484Z,15.53
2023-03-16T03:35:12.326Z,13.02
2023-03-16T03:37:40.663Z,11.97
2023-03-16T03:40:08.558Z,12.93
2023-03-16T03:42:35.012Z,10.53
2023-03-16T03:45:01.589Z,15.68
2023-03-16T03:47:28.036Z,11.98
2023-03-16T03:49:54.516Z,15.90
2023-03-16T03:52:20.969Z,9.63
2023-03-16T03:54:47.482Z,11.15
2023-03-16T03:57:13.982Z,9.88
2023-03-16T03:59:43.832Z,14.32
2023-03-16T04:02:11.864Z,14.33
2023-03-16T04:04:38.802Z,11.93
2023-03-16T04:07:05.669Z,10.15
2023-03-16T04:09:35.513Z,12.05
2023-03-16T04:12:03.831Z,16.37
2023-03-16T04:14:30.524Z,13.53
2023-03-16T04:16:57.567Z,15.23
2023-03-16T04:19:25.204Z,12.10
2023-03-16T04:21:52.226Z,11.43
2023-03-16T04:26:45.755Z,11.55
2023-03-16T04:31:45.990Z,12.27
2023-03-16T04:34:13.587Z,11.87
2023-03-16T04:36:41.772Z,12.07
2023-03-16T04:39:09.003Z,14.13
2023-03-16T04:41:35.426Z,14.07
2023-03-16T04:44:01.948Z,13.98
2023-03-16T04:46:29.507Z,13.00
2023-03-16T04:48:58.409Z,13.67
2023-03-16T04:51:26.431Z,14.17
2023-03-16T04:53:53.275Z,11.20
2023-03-16T04:56:20.050Z,10.45
2023-03-16T04:58:48.663Z,10.27
2023-03-16T05:01:15.773Z,10.37
2023-03-16T05:03:43.677Z,11.03
2023-03-16T05:06:11.993Z,11.07
2023-03-16T05:08:38.511Z,11.73
2023-03-16T05:11:05.265Z,10.98
2023-03-16T05:13:32.293Z,11.07
2023-03-16T05:18:25.377Z,13.05
2023-03-16T05:20:53.593Z,12.13
2023-03-16T05:23:20.898Z,9.93
2023-03-16T05:25:48.539Z,11.47
2023-03-16T05:28:15.125Z,15.38
2023-03-16T05:30:42.546Z,10.70
2023-03-16T05:33:09.603Z,8.53
2023-03-16T05:35:36.662Z,13.17
2023-03-16T05:40:30.809Z,11.13
2023-03-16T05:43:00.737Z,9.38
2023-03-16T05:45:28.994Z,9.83
2023-03-16T05:47:55.508Z,11.33
2023-03-16T05:50:22.612Z,8.82
2023-03-16T05:52:49.212Z,12.20
2023-03-16T05:55:18.354Z,12.25
2023-03-16T05:57:44.920Z,16.10
2023-03-16T06:00:19.660Z,12.40
2023-03-16T06:02:48.693Z,9.97
2023-03-16T06:05:16.456Z,11.10
2023-03-16T06:07:43.209Z,15.77
2023-03-16T06:10:11.430Z,15.40
2023-03-16T06:12:38.342Z,11.03
2023-03-16T06:15:09.136Z,15.60
2023-03-16T06:17:36.509Z,14.33
2023-03-16T06:20:05.793Z,13.70
2023-03-16T06:22:32.257Z,15.97
2023-03-16T06:24:58.753Z,11.07
2023-03-16T06:27:26.555Z,15.95
2023-03-16T06:29:53.272Z,13.98
2023-03-16T06:32:19.900Z,14.15
2023-03-16T06:34:46.433Z,13.90
2023-03-16T06:37:12.932Z,14.60
2023-03-16T06:39:40.143Z,15.52
2023-03-16T06:42:06.713Z,16.73
2023-03-16T06:44:33.204Z,13.73
2023-03-16T06:46:59.753Z,12.70
2023-03-16T06:49:26.287Z,13.27
2023-03-16T06:51:52.755Z,14.43
2023-03-16T06:54:19.362Z,16.88
2023-03-16T06:56:46.471Z,17.45
2023-03-16T06:59:13.170Z,13.93
2023-03-16T07:01:39.616Z,16.10
2023-03-16T07:04:06.136Z,12.60
2023-03-16T07:06:32.644Z,12.45
2023-03-16T07:09:01.413Z,14.60
2023-03-16T07:11:27.932Z,9.77
2023-03-16T07:13:54.451Z,10.45
2023-03-16T07:16:21.698Z,14.73
2023-03-16T07:18:48.187Z,10.90
2023-03-16T07:21:14.736Z,9.90
2023-03-16T07:23:41.190Z,10.48
2023-03-16T07:26:08.404Z,11.32
2023-03-16T07:28:35.267Z,16.00
2023-03-16T07:31:04.061Z,9.50
2023-03-16T07:33:32.587Z,13.30
2023-03-16T07:35:59.619Z,7.57
2023-03-16T07:40:52.641Z,7.75
2023-03-16T07:43:19.376Z,13.48
2023-03-16T07:45:52.146Z,10.02
2023-03-16T07:48:19.757Z,10.32
2023-03-16T07:50:49.616Z,10.07
2023-03-16T07:53:16.618Z,9.20
2023-03-16T07:58:11.260Z,9.00
2023-03-16T08:00:39.017Z,8.05
2023-03-16T08:03:06.157Z,8.38
2023-03-16T08:10:25.946Z,9.30
2023-03-16T08:12:52.527Z,10.25
2023-03-16T08:15:19.703Z,5.40
2023-03-16T08:17:46.577Z,8.73
2023-03-16T08:20:15.652Z,9.48
2023-03-16T08:22:46.686Z,5.00
2023-03-16T08:25:15.205Z,7.75
2023-03-16T08:27:43.029Z,5.13
2023-03-16T08:30:11.898Z,9.10
2023-03-16T08:32:42.070Z,8.95
2023-03-16T08:35:14.020Z,6.72
2023-03-16T08:37:41.813Z,7.40
2023-03-16T08:40:19.571Z,4.13
2023-03-16T08:42:46.415Z,6.13
2023-03-16T08:45:14.413Z,6.38
2023-03-16T08:47:41.460Z,9.40
2023-03-16T08:50:09.654Z,5.80
2023-03-16T08:52:36.712Z,6.50
2023-03-16T08:57:34.173Z,6.20
2023-03-16T09:00:01.694Z,6.50
2023-03-16T09:02:28.218Z,7.50
2023-03-16T09:04:54.783Z,7.32
2023-03-16T09:07:21.950Z,5.95
2023-03-16T09:09:48.499Z,5.95
2023-03-16T09:12:15.049Z,4.03
2023-03-16T09:14:41.546Z,7.47
2023-03-16T09:17:08.352Z,6.63
2023-03-16T09:19:50.118Z,5.43
2023-03-16T09:22:17.938Z,2.25
2023-03-16T09:27:11.060Z,6.00
2023-03-16T09:29:37.596Z,5.53
2023-03-16T09:32:05.341Z,7.07
2023-03-16T09:34:33.392Z,3.15
2023-03-16T09:37:00.559Z,4.28
2023-03-16T09:39:27.418Z,3.88
2023-03-16T09:42:17.595Z,5.53
2023-03-16T09:45:09.231Z,6.82
2023-03-16T09:47:38.018Z,5.78
2023-03-16T09:50:09.875Z,2.97
2023-03-16T09:53:02.510Z,4.00
2023-03-16T09:55:35.880Z,4.72
2023-03-16T09:58:06.996Z,4.30
2023-03-16T10:00:47.685Z,4.45
2023-03-16T10:03:32.364Z,6.10
2023-03-16T10:06:05.174Z,5.68
2023-03-16T10:08:42.030Z,5.78
2023-03-16T10:13:57.805Z,3.20
2023-03-16T10:16:31.839Z,4.38
2023-03-16T10:19:08.033Z,4.13
2023-03-16T10:21:40.358Z,4.20
2023-03-16T10:24:18.468Z,3.13
2023-03-16T10:26:50.876Z,10.50
2023-03-16T10:29:17.980Z,3.95
2023-03-16T10:36:45.345Z,4.00
2023-03-16T10:39:14.216Z,3.95
2023-03-16T10:41:43.806Z,2.80
2023-03-16T10:44:24.615Z,6.50
2023-03-16T10:47:05.532Z,4.85
2023-03-16T10:49:44.527Z,2.83
2023-03-16T10:52:22.328Z,4.45
2023-03-16T10:55:12.143Z,3.92
2023-03-16T10:57:42.934Z,4.05
2023-03-16T11:00:20.922Z,3.55
2023-03-16T11:02:49.891Z,3.70
2023-03-16T11:05:19.362Z,4.13
2023-03-16T11:07:51.360Z,3.65
2023-03-16T11:10:28.512Z,4.68
2023-03-16T11:12:57.581Z,6.97
2023-03-16T11:15:28.606Z,3.28
2023-03-16T11:17:55.317Z,4.63
2023-03-16T11:20:30.771Z,4.82
2023-03-16T11:22:58.425Z,3.55
2023-03-16T11:25:33.790Z,5.00
2023-03-16T11:28:06.516Z,3.20
2023-03-16T11:30:41.250Z,2.25
2023-03-16T11:33:14.148Z,2.03
2023-03-16T11:36:12.740Z,3.03
2023-03-16T11:39:00.043Z,4.18
2023-03-16T11:41:41.054Z,4.38
2023-03-16T11:44:07.456Z,5.43
2023-03-16T11:46:42.073Z,3.92
2023-03-16T11:49:08.577Z,5.72
2023-03-16T11:52:12.982Z,4.97
2023-03-16T11:55:01.467Z,5.63
2023-03-16T11:57:50.029Z,3.70
2023-03-16T12:00:52.451Z,5.10
2023-03-16T12:03:53.923Z,2.65
2023-03-16T12:06:34.507Z,6.20
2023-03-16T12:09:10.624Z,4.53
2023-03-16T12:11:52.348Z,4.03
2023-03-16T12:14:41.421Z,5.20
2023-03-16T12:17:15.804Z,3.60
2023-03-16T12:19:45.613Z,4.25
2023-03-16T12:22:21.541Z,2.20
2023-03-16T12:24:49.418Z,4.88
2023-03-16T12:27:22.552Z,4.47
2023-03-16T12:30:03.747Z,5.75
2023-03-16T12:32:38.330Z,3.63
2023-03-16T12:35:34.002Z,3.60
2023-03-16T12:38:55.402Z,6.05
2023-03-16T12:41:39.424Z,5.72
2023-03-16T12:44:26.926Z,3.30
2023-03-16T12:47:04.648Z,5.78
2023-03-16T12:49:36.868Z,3.85
2023-03-16T12:52:11.321Z,4.15
2023-03-16T12:54:54.932Z,4.30
2023-03-16T12:57:25.436Z,3.33
2023-03-16T12:59:58.943Z,3.58
2023-03-16T13:02:35.165Z,4.00
2023-03-16T13:05:23.462Z,5.85
2023-03-16T13:07:52.583Z,5.43
2023-03-16T13:10:21.180Z,5.40
2023-03-16T13:12:48.225Z,3.92
2023-03-16T13:17:44.383Z,4.50
2023-03-16T13:20:20.972Z,4.28
2023-03-16T13:23:18.841Z,4.07
2023-03-16T13:26:14.096Z,8.60
2023-03-16T13:28:41.471Z,3.22
2023-03-16T13:31:34.296Z,5.28
2023-03-16T13:34:01.291Z,3.60
2023-03-16T13:38:58.476Z,7.97
2023-03-16T13:41:25.335Z,6.20
2023-03-16T13:43:51.960Z,5.60
2023-03-16T13:46:21.502Z,5.72
2023-03-16T13:48:49.029Z,4.78
2023-03-16T13:51:23.950Z,5.72
2023-03-16T13:53:51.074Z,6.95
2023-03-16T13:56:23.844Z,4.35
2023-03-16T13:58:52.544Z,5.55
2023-03-16T14:01:26.533Z,6.35
2023-03-16T14:03:56.070Z,6.82
2023-03-16T14:06:26.686Z,6.80
2023-03-16T14:08:58.627Z,6.40
2023-03-16T14:11:28.609Z,7.90
2023-03-16T14:13:57.599Z,18.83
2023-03-16T14:16:26.172Z,17.20
2023-03-16T14:19:02.920Z,25.85
2023-03-16T14:24:05.644Z,9.52
2023-03-16T14:26:43.615Z,7.63
2023-03-16T14:29:30.688Z,5.20
2023-03-16T14:31:58.908Z,4.95
2023-03-16T14:34:30.112Z,10.32
2023-03-16T14:37:08.472Z,25.15
2023-03-16T14:39:35.722Z,14.23
2023-03-16T14:42:05.124Z,7.75
2023-03-16T14:44:35.745Z,5.68
2023-03-16T14:47:05.020Z,6.13
2023-03-16T14:49:41.476Z,5.88
2023-03-16T14:52:24.154Z,8.85
2023-03-16T14:54:51.398Z,5.57
2023-03-16T14:57:17.990Z,3.85
2023-03-16T14:59:44.523Z,6.53
2023-03-16T15:02:18.441Z,4.65
2023-03-16T15:04:46.426Z,5.55
2023-03-16T15:07:26.128Z,7.68
2023-03-16T15:09:53.992Z,5.28
2023-03-16T15:12:22.579Z,8.70
2023-03-16T15:15:07.543Z,7.32
2023-03-16T15:17:34.073Z,8.73
2023-03-16T15:20:01.308Z,7.25
2023-03-16T15:22:33.911Z,5.10
2023-03-16T15:25:03.646Z,6.10
2023-03-16T15:27:36.542Z,5.95
2023-03-16T15:30:03.472Z,4.88
2023-03-16T15:32:30.154Z,5.45
2023-03-16T15:34:57.760Z,4.20
2023-03-16T15:37:27.636Z,5.47
2023-03-16T15:39:54.404Z,6.15
2023-03-16T15:42:20.854Z,7.03
2023-03-16T15:44:47.442Z,5.82
2023-03-16T15:47:14.806Z,4.78
2023-03-16T15:49:47.833Z,5.47
2023-03-16T15:52:32.586Z,8.13
2023-03-16T15:55:04.447Z,9.45
2023-03-16T15:57:31.740Z,6.00
2023-03-16T15:59:59.419Z,6.93
2023-03-16T16:02:29.487Z,6.55
2023-03-16T16:04:57.133Z,4.43
2023-03-16T16:07:24.000Z,5.00
2023-03-16T16:09:51.227Z,8.25
2023-03-16T16:12:19.568Z,6.43
2023-03-16T16:14:46.377Z,7.22
2023-03-16T16:17:19.946Z,6.80
2023-03-16T16:19:48.114Z,6.47
2023-03-16T16:24:41.045Z,7.22
2023-03-16T16:27:16.604Z,8.07
2023-03-16T16:29:43.079Z,9.90
2023-03-16T16:32:23.625Z,8.15
2023-03-16T16:35:01.915Z,7.00
2023-03-16T16:37:30.486Z,4.97
2023-03-16T16:39:57.028Z,5.20
2023-03-16T16:42:23.503Z,10.30
2023-03-16T16:44:51.599Z,7.28
2023-03-16T16:47:22.397Z,7.20
2023-03-16T16:49:49.971Z,6.93
2023-03-16T16:52:17.592Z,5.68
2023-03-16T16:54:44.165Z,6.82
2023-03-16T16:57:20.474Z,6.72
2023-03-16T16:59:48.413Z,4.60
2023-03-16T17:02:31.245Z,7.45
2023-03-16T17:04:57.766Z,7.53
2023-03-16T17:07:24.887Z,5.50
2023-03-16T17:09:51.316Z,5.68
2023-03-16T17:12:22.435Z,6.25
2023-03-16T17:14:50.069Z,5.55
2023-03-16T17:17:17.928Z,7.75
2023-03-16T17:19:46.823Z,5.20
2023-03-16T17:22:28.638Z,5.93
2023-03-16T17:24:55.401Z,5.55
2023-03-16T17:27:26.793Z,5.97
2023-03-16T17:29:54.350Z,5.53
2023-03-16T17:32:22.930Z,6.03
2023-03-16T17:34:50.993Z,8.00
2023-03-16T17:37:19.868Z,5.60
2023-03-16T17:39:46.644Z,5.88
2023-03-16T17:42:17.643Z,8.05
2023-03-16T17:44:50.053Z,5.85
2023-03-16T17:47:20.829Z,5.53
2023-03-16T17:49:49.042Z,7.70
2023-03-16T17:52:18.737Z,6.57
2023-03-16T17:54:46.964Z,5.80
2023-03-16T17:57:25.150Z,7.88
2023-03-16T17:59:52.197Z,6.53
2023-03-16T18:05:05.644Z,9.27
2023-03-16T18:07:32.154Z,11.48
2023-03-16T18:09:59.203Z,7.32
2023-03-16T18:14:58.438Z,9.20
2023-03-16T18:17:29.361Z,6.18
2023-03-16T18:19:55.954Z,7.18
2023-03-16T18:22:24.701Z,8.15
2023-03-16T18:24:53.933Z,6.13
2023-03-16T18:27:21.425Z,6.55
2023-03-16T18:29:48.304Z,9.93
2023-03-16T18:32:25.156Z,10.25
2023-03-16T18:34:53.005Z,7.07
2023-03-16T18:37:23.108Z,7.88
2023-03-16T18:39:51.881Z,11.20
2023-03-16T18:42:20.998Z,8.60
2023-03-16T18:44:49.048Z,8.25
2023-03-16T18:47:22.041Z,6.32
2023-03-16T18:49:51.401Z,9.60
2023-03-16T18:52:26.301Z,10.48
2023-03-16T18:54:53.300Z,6.53
2023-03-16T18:59:51.004Z,6.93
2023-03-16T19:02:29.268Z,8.77
2023-03-16T19:04:59.720Z,10.65
2023-03-16T19:07:33.705Z,8.73
2023-03-16T19:10:05.294Z,8.60
2023-03-16T19:12:31.699Z,10.13
2023-03-16T19:14:58.174Z,9.65
2023-03-16T19:17:24.640Z,8.95
2023-03-16T19:19:51.163Z,11.15
2023-03-16T19:22:21.257Z,9.77
2023-03-16T19:24:51.411Z,8.23
2023-03-16T19:27:36.874Z,8.48
2023-03-16T19:30:04.719Z,7.90
2023-03-16T19:32:31.221Z,9.35
2023-03-16T19:34:57.985Z,9.10
2023-03-16T19:37:25.854Z,9.98
2023-03-16T19:39:52.618Z,10.82
2023-03-16T19:42:22.579Z,9.77
2023-03-16T19:44:50.378Z,8.48
2023-03-16T19:47:35.274Z,8.95
2023-03-16T19:50:02.082Z,6.95
2023-03-16T19:52:31.198Z,8.52
2023-03-16T19:54:57.713Z,7.53
2023-03-16T19:57:24.245Z,8.75
2023-03-16T19:59:56.279Z,10.05
2023-03-16T20:02:29.841Z,9.02
2023-03-16T20:04:56.828Z,8.48
2023-03-16T20:07:23.358Z,7.72
2023-03-16T20:09:50.894Z,8.20
2023-03-16T20:12:24.049Z,7.45
2023-03-16T20:14:51.399Z,8.07
2023-03-16T20:17:24.827Z,7.32
2023-03-16T20:19:52.067Z,7.15
2023-03-16T20:22:21.474Z,7.03
2023-03-16T20:24:51.183Z,5.70
2023-03-16T20:27:19.955Z,12.52
2023-03-16T20:29:47.073Z,7.25
2023-03-16T20:34:48.683Z,5.32
2023-03-16T20:37:27.363Z,7.63
2023-03-16T20:39:56.196Z,7.88
2023-03-16T20:42:27.649Z,8.13
2023-03-16T20:44:54.194Z,9.15
2023-03-16T20:47:23.968Z,6.85
2023-03-16T20:49:52.392Z,6.07
2023-03-16T20:52:24.418Z,8.55
2023-03-16T20:54:51.140Z,7.55
2023-03-16T20:57:23.538Z,9.68
2023-03-16T20:59:52.266Z,8.60
2023-03-16T21:02:31.989Z,7.40
2023-03-16T21:05:00.609Z,9.40
2023-03-16T21:07:27.799Z,9.25
2023-03-16T21:09:54.296Z,7.60
2023-03-16T21:12:27.576Z,9.48
2023-03-16T21:14:56.121Z,5.53
2023-03-16T21:17:26.943Z,8.27
2023-03-16T21:19:53.450Z,8.82
2023-03-16T21:22:28.442Z,8.02
2023-03-16T21:24:56.245Z,8.13
2023-03-16T21:27:28.093Z,7.85
2023-03-16T21:29:56.949Z,8.57
2023-03-16T21:34:53.282Z,8.35
2023-03-16T21:39:51.677Z,8.02
2023-03-16T21:42:19.112Z,7.30
2023-03-16T21:44:45.673Z,7.22
2023-03-16T21:47:28.404Z,8.68
2023-03-16T21:49:55.949Z,11.52
2023-03-16T21:52:28.134Z,11.07
2023-03-16T21:54:55.925Z,10.23
2023-03-16T21:57:23.008Z,8.23
2023-03-16T22:02:22.678Z,10.80
2023-03-16T22:04:50.743Z,9.10
2023-03-16T22:07:17.550Z,7.97
2023-03-16T22:09:44.271Z,7.45
2023-03-16T22:12:12.749Z,10.45
2023-03-16T22:14:39.950Z,7.72
2023-03-16T22:17:08.511Z,7.13
2023-03-16T22:19:34.971Z,7.57
2023-03-16T22:22:01.490Z,8.07
2023-03-16T22:24:34.885Z,9.60
2023-03-16T22:27:11.556Z,9.85
2023-03-16T22:29:43.828Z,10.38
2023-03-16T22:32:25.474Z,9.00
2023-03-16T22:34:56.053Z,8.18
2023-03-16T22:37:26.848Z,7.50
2023-03-16T22:39:54.419Z,8.85
2023-03-16T22:42:41.676Z,13.00
2023-03-16T22:45:22.128Z,12.63
2023-03-16T22:47:48.814Z,9.90
2023-03-16T22:50:16.726Z,11.55
2023-03-16T22:52:46.219Z,9.45
2023-03-16T22:55:23.767Z,8.60
2023-03-16T22:57:55.366Z,9.02
2023-03-16T23:00:22.231Z,9.00
2023-03-16T23:02:49.394Z,10.48
2023-03-16T23:05:25.215Z,9.35
2023-03-16T23:07:52.385Z,11.10
2023-03-16T23:10:21.702Z,10.70
2023-03-16T23:12:49.348Z,8.85
2023-03-16T23:15:19.479Z,8.85
2023-03-16T23:17:45.976Z,11.23
2023-03-16T23:20:28.986Z,10.73
2023-03-16T23:22:55.853Z,11.30
2023-03-16T23:25:23.685Z,7.90
2023-03-16T23:27:51.827Z,9.73
2023-03-16T23:30:24.477Z,9.23
2023-03-16T23:32:53.203Z,13.65
2023-03-16T23:35:25.284Z,9.07
2023-03-16T23:37:52.426Z,8.48
2023-03-16T23:40:20.120Z,12.10
2023-03-16T23:42:47.194Z,10.95
2023-03-16T23:47:51.405Z,9.80
2023-03-16T23:50:25.722Z,9.35
2023-03-16T23:52:52.395Z,8.63
2023-03-16T23:55:19.164Z,8.30
2023-03-16T23:57:46.043Z,9.30
